Latest Weather Observations for Tasman Island

IDT60801

Issued at 7:01 am EST Saturday 1 August 2015 (issued every 30 minutes, with the page automatically refreshed every 10 minutes)

About weather observations | Map of weather stations | Latest weather observations for TAS | Other Formats
Station Details ID: 094155 Name: TASMAN ISLAND Lat: -43.24 Lon: 148.00 Height: 240.0 m
Data from the previous 72 hours. | See also: Recent months at Tasman Island
Date/Time
EST
Temp
°C
App
Temp
°C
Dew
Point
Rel
Hum
%
Delta-T
°C
Wind Press
QNH
hPa
Press
MSL
hPa
Rain
since 9 am
mm
Dir
 
Spd
km/h
Gust
km/h
Spd
kts
Gust
kts
01/07:00am 6.4 -1.0 3.9 84 1.1 NW 32 50 17 27 996.5 996.8 0.2
01/06:30am 7.3 -1.9 3.4 76 1.7 NW 41 69 22 37 995.9 996.2 0.2
01/06:00am 7.4 -3.5 3.6 77 1.7 NW 50 78 27 42 995.4 995.7 0.2
01/05:30am 8.0 -2.3 2.9 70 2.2 NW 46 76 25 41 995.5 995.8 0.0
01/05:00am 8.2 -2.2 2.2 66 2.6 NW 46 65 25 35 994.8 995.0 0.0
01/04:30am 8.4 -2.0 2.0 64 2.7 NNW 46 80 25 43 994.3 994.5 0.0
01/04:27am 8.4 -1.6 2.0 64 2.7 NNW 44 80 24 43 994.5 994.7 0.0
01/04:00am 8.3 -0.8 2.1 65 2.6 NNW 39 61 21 33 995.1 995.3 0.0
01/03:30am 8.2 -1.7 1.8 64 2.7 NNW 43 70 23 38 995.5 995.8 0.0
01/03:00am 8.1 -0.7 1.3 62 2.8 NNW 37 63 20 34 996.6 996.9 0.0
01/02:30am 7.9 -0.1 1.5 64 2.6 NNW 33 65 18 35 997.7 997.9 0.0
01/02:00am 7.7 -1.3 2.6 70 2.2 N 39 67 21 36 998.9 999.2 0.0
01/01:30am 7.8 -2.0 3.1 72 2.0 N 44 67 24 36 999.4 999.7 0.0
01/01:00am 7.7 -0.8 3.2 73 1.9 N 37 57 20 31 999.6 999.9 0.0
01/12:57am 7.7 -0.4 3.0 72 2.0 NNE 35 56 19 30 999.5 999.8 0.0
01/12:30am 7.7 0.0 3.2 73 1.9 N 33 57 18 31 1001.6 1001.8 0.0
01/12:00am 7.5 0.3 2.8 72 2.0 NNE 30 54 16 29 1002.8 1003.1 0.0
 
Date/Time
EST
Temp
°C
App
Temp
°C
Dew
Point
Rel
Hum
%
Delta-T
°C
Wind Press
QNH
hPa
Press
MSL
hPa
Rain
since 9 am
mm
Dir
 
Spd
km/h
Gust
km/h
Spd
kts
Gust
kts
31/11:30pm 7.4 0.1 2.7 72 2.0 N 30 56 16 30 1003.3 1003.6 0.0
31/11:00pm 7.2 0.0 2.9 74 1.8 N 30 50 16 27 1003.5 1003.8 0.0
31/10:30pm 7.3 -1.3 2.4 71 2.1 N 37 56 20 30 1004.1 1004.4 0.0
31/10:15pm 7.3 0.0 2.4 71 2.1 N 30 48 16 26 1004.7 1005.0 0.0
31/10:00pm 7.3 -0.3 2.8 73 1.9 N 32 48 17 26 1005.0 1005.3 0.0
31/09:30pm 7.1 -1.2 2.4 72 2.0 N 35 48 19 26 1005.8 1006.1 0.0
31/09:02pm 7.2 -0.5 2.3 71 2.1 N 32 52 17 28 1006.5 1006.8 0.0
31/09:00pm 7.3 -1.0 2.2 70 2.1 N 35 52 19 28 1006.6 1006.9 0.0
31/08:30pm 7.2 -0.5 2.1 70 2.1 N 32 44 17 24 1006.9 1007.2 0.0
31/08:00pm 7.0 -1.3 1.9 70 2.1 N 35 46 19 25 1007.2 1007.5 0.0
31/07:30pm 6.9 0.6 1.6 69 2.2 N 24 41 13 22 1007.8 1008.1 0.0
31/07:22pm 7.3 0.1 1.0 64 2.6 NNW 28 48 15 26 1007.8 1008.1 0.0
31/07:00pm 7.1 0.4 1.2 66 2.4 NNW 26 39 14 21 1008.2 1008.5 0.0
31/06:30pm 7.3 0.6 1.4 66 2.4 N 26 39 14 21 1008.3 1008.6 0.0
31/06:00pm 7.2 1.3 1.7 68 2.3 N 22 30 12 16 1008.3 1008.6 0.0
31/05:30pm 7.2 1.8 1.5 67 2.3 N 19 24 10 13 1008.4 1008.7 0.0
31/05:00pm 7.6 2.1 0.6 61 2.8 N 19 28 10 15 1008.8 1009.1 0.0
31/04:30pm 8.1 3.7 0.1 57 3.2 N 13 20 7 11 1009.1 1009.5 0.0
31/04:00pm 8.3 4.6 0.1 56 3.3 NNW 9 17 5 9 1009.5 1009.9 0.0
31/03:30pm 8.8 3.7 0.5 56 3.4 NNW 17 28 9 15 1009.8 1010.2 0.0
31/03:00pm 9.0 3.4 1.2 58 3.2 NNW 20 28 11 15 1010.2 1010.5 0.0
31/02:30pm 8.7 2.6 0.7 57 3.3 NNW 22 35 12 19 1010.2 1010.5 0.0
31/02:00pm 8.6 2.1 0.6 57 3.3 NNW 24 43 13 23 1010.7 1011.0 0.0
31/01:30pm 8.8 2.4 0.8 57 3.3 NNW 24 39 13 21 1011.0 1011.3 0.0
31/01:00pm 7.7 1.7 0.9 62 2.8 NNW 22 32 12 17 1011.4 1011.7 0.0
31/12:30pm 7.8 0.9 0.3 59 3.0 NNW 26 37 14 20 1011.8 1012.1 0.0
31/12:00pm 8.3 2.6 0.8 59 3.1 NNW 20 30 11 16 1012.1 1012.4 0.0
31/11:30am 8.2 3.1 0.7 59 3.1 NNW 17 28 9 15 1012.5 1012.8 0.0
31/11:00am 7.5 -0.1 0.3 60 2.9 NW 30 39 16 21 1012.4 1012.7 0.0
31/10:30am 6.9 0.0 -0.1 61 2.8 NW 26 37 14 20 1012.5 1012.8 0.0
31/10:00am 6.8 -0.5 -0.2 61 2.7 NW 28 41 15 22 1012.3 1012.6 0.0
31/09:30am 6.4 -0.8 0.5 66 2.3 NW 28 46 15 25 1012.2 1012.5 0.0
31/09:20am 6.2 -1.1 0.1 65 2.4 NW 28 46 15 25 1012.1 1012.4 0.0
31/09:00am 6.0 1.2 -0.1 65 2.4 WNW 15 37 8 20 1012.1 1012.4 -
31/08:30am 5.7 1.2 -0.4 65 2.4 WNW 13 33 7 18 1012.0 1012.3 -
31/08:00am 5.5 2.1 -0.8 64 2.4 W 7 26 4 14 1011.4 1011.7 -
31/07:30am 5.0 -2.1 -1.0 65 2.3 WNW 26 48 14 26 1011.2 1011.5 -
31/07:00am 5.0 -0.2 -0.2 69 2.0 WNW 17 41 9 22 1010.8 1011.1 -
31/06:30am 5.0 -0.2 -0.2 69 2.0 WNW 17 32 9 17 1010.5 1010.8 -
31/06:00am 4.8 -0.5 -0.6 68 2.1 WNW 17 39 9 21 1010.1 1010.4 -
31/05:30am 4.7 -1.1 0.1 72 1.8 WNW 20 43 11 23 1009.9 1010.3 -
31/05:00am 4.7 0.6 0.1 72 1.8 NW 11 32 6 17 1009.4 1009.8 -
31/04:30am 4.8 0.4 0.2 72 1.8 NNW 13 41 7 22 1009.2 1009.6 -
31/04:00am 5.0 -0.2 0.4 72 1.8 NW 17 41 9 22 1008.5 1008.8 -
31/03:30am 5.1 0.0 0.5 72 1.8 NW 17 43 9 23 1007.9 1008.2 -
31/03:00am 5.2 1.1 0.0 69 2.0 W 11 50 6 27 1007.7 1008.0 2.0
31/02:30am 5.7 0.9 -0.1 66 2.3 WNW 15 50 8 27 1006.5 1006.8 -
31/02:00am 5.7 1.6 -0.4 65 2.4 NNE 11 39 6 21 1006.6 1006.9 -
31/01:30am 5.8 1.8 0.6 69 2.1 NNW 11 39 6 21 1006.3 1006.6 -
31/01:00am 5.6 1.0 1.5 75 1.7 WNW 15 50 8 27 1005.4 1005.7 -
31/12:38am 5.8 -1.4 0.6 69 2.1 WSW 28 65 15 35 1004.9 1005.2 -
31/12:30am 6.0 0.7 1.7 74 1.8 WSW 19 56 10 30 1004.5 1004.8 -
31/12:16am 5.3 -1.4 1.4 76 1.6 WSW 26 61 14 33 1004.2 1004.5 -
31/12:00am 6.1 1.1 1.1 70 2.0 SE 17 57 9 31 1003.8 1004.1 -
 
Date/Time
EST
Temp
°C
App
Temp
°C
Dew
Point
Rel
Hum
%
Delta-T
°C
Wind Press
QNH
hPa
Press
MSL
hPa
Rain
since 9 am
mm
Dir
 
Spd
km/h
Gust
km/h
Spd
kts
Gust
kts
30/11:30pm 6.7 -0.1 0.8 66 2.4 WSW 26 74 14 40 1003.5 1003.8 -
30/11:20pm 6.9 1.0 1.8 70 2.1 WSW 22 83 12 45 1003.4 1003.7 -
30/11:17pm 6.8 1.5 2.1 72 2.0 WSW 19 63 10 34 1003.3 1003.6 -
30/11:00pm 6.5 -0.4 2.6 76 1.6 WSW 28 70 15 38 1002.6 1002.9 -
30/10:58pm 6.8 -0.4 2.9 76 1.6 WSW 30 70 16 38 1002.5 1002.8 -
30/10:56pm 7.1 -0.1 3.2 76 1.7 WSW 30 70 16 38 1002.4 1002.7 -
30/10:30pm 6.9 -2.0 3.0 76 1.7 WSW 39 87 21 47 1002.4 1002.7 -
30/10:19pm 6.8 -2.1 3.2 78 1.5 SW 39 87 21 47 1001.9 1002.1 -
30/10:08pm 6.8 1.7 3.9 82 1.3 SSW 20 69 11 37 1002.1 1002.3 -
30/10:00pm 6.8 0.9 4.1 83 1.2 WSW 24 72 13 39 1001.8 1002.0 -
30/09:35pm 6.3 1.4 4.1 86 1.0 WSW 19 59 10 32 1000.9 1001.2 -
30/09:30pm 7.0 2.9 4.1 82 1.3 W 15 48 8 26 1000.9 1001.2 -
30/09:00pm 7.5 2.6 3.9 78 1.6 SW 19 56 10 30 1000.6 1000.9 -
30/08:47pm 8.3 2.7 3.4 71 2.1 WSW 22 57 12 31 999.8 1000.1 -
30/08:30pm 8.4 4.0 5.0 79 1.5 WNW 17 39 9 21 1000.1 1000.4 -
30/08:00pm 8.1 0.4 5.4 83 1.2 NW 35 57 19 31 999.4 999.7 -
30/07:30pm 8.8 -0.3 4.0 72 2.1 NW 41 65 22 35 999.0 999.3 0.0
30/07:07pm 9.5 1.7 3.0 64 2.8 NNW 33 52 18 28 998.1 998.3 0.0
30/07:00pm 9.6 3.9 3.1 64 2.9 NNW 22 41 12 22 998.1 998.3 0.0
30/06:33pm 9.5 2.8 3.7 67 2.6 N 28 46 15 25 997.9 998.1 0.0
30/06:30pm 9.5 2.0 3.3 65 2.7 N 32 46 17 25 997.9 998.1 0.0
30/06:01pm 9.4 3.5 4.0 69 2.4 N 24 56 13 30 997.5 997.7 0.0
30/06:00pm 9.4 3.1 4.0 69 2.4 N 26 54 14 29 997.5 997.7 0.0
30/05:30pm 9.9 2.4 4.3 68 2.5 N 33 57 18 31 998.1 998.3 0.0
30/05:00pm 10.4 3.7 3.4 62 3.1 N 28 50 15 27 998.9 999.2 0.0
30/04:30pm 10.4 3.0 3.9 64 2.9 N 32 52 17 28 999.3 999.6 0.0
30/04:00pm 10.6 4.3 3.6 62 3.1 N 26 52 14 28 999.8 1000.1 0.0
30/03:31pm 10.3 1.5 3.6 63 3.0 N 39 59 21 32 1000.3 1000.6 0.0
30/03:30pm 10.3 1.1 3.6 63 3.0 N 41 59 22 32 1000.3 1000.6 0.0
30/03:00pm 10.4 1.6 3.7 63 3.0 N 39 61 21 33 1000.9 1001.2 0.0
30/02:30pm 10.3 -0.2 3.6 63 3.0 NNW 48 72 26 39 1001.0 1001.3 0.0
30/02:00pm 10.4 0.7 2.7 59 3.4 NNW 43 67 23 36 1001.6 1001.8 0.0
30/01:38pm 10.1 2.4 3.2 62 3.0 NNW 33 69 18 37 1002.1 1002.3 0.0
30/01:33pm 9.9 3.2 3.4 64 2.9 NNW 28 48 15 26 1002.4 1002.7 0.0
30/01:30pm 9.9 2.4 3.2 63 2.9 NNW 32 48 17 26 1002.6 1002.9 0.0
30/01:04pm 9.8 2.2 3.1 63 2.9 NNW 32 52 17 28 1003.1 1003.4 0.0
30/01:00pm 9.8 2.1 3.3 64 2.9 NNW 33 52 18 28 1003.1 1003.4 0.0
30/12:30pm 9.6 1.3 4.0 68 2.5 NNW 37 57 20 31 1004.1 1004.4 0.0
30/12:21pm 9.6 2.9 3.6 66 2.6 NNW 28 57 15 31 1004.3 1004.6 0.0
30/12:00pm 9.7 4.7 3.4 65 2.8 N 19 35 10 19 1005.8 1006.1 0.0
30/11:30am 9.4 2.2 2.9 64 2.8 N 30 52 16 28 1006.5 1006.8 0.0
30/11:00am 9.1 2.0 3.5 68 2.5 NNW 30 50 16 27 1007.8 1008.1 0.0
30/10:39am 8.9 2.2 3.5 69 2.4 NNW 28 46 15 25 1008.2 1008.5 0.0
30/10:30am 8.9 2.5 3.3 68 2.4 NNW 26 39 14 21 1008.7 1009.0 0.0
30/10:00am 8.9 2.8 2.7 65 2.7 NNW 24 46 13 25 1009.3 1009.7 0.0
30/09:52am 9.0 3.9 2.8 65 2.7 NW 19 46 10 25 1009.6 1010.0 0.0
30/09:30am 8.9 3.5 2.7 65 2.7 NNW 20 39 11 21 1010.2 1010.5 0.0
30/09:00am 9.2 5.1 2.5 63 2.9 NNW 13 35 7 19 1010.9 1011.2 0.0
30/08:30am 9.0 4.2 2.6 64 2.7 NNW 17 39 9 21 1011.5 1011.8 0.0
30/08:00am 9.1 2.9 2.2 62 2.9 N 24 46 13 25 1011.8 1012.1 0.0
30/07:30am 8.7 2.9 2.1 63 2.8 NNW 22 43 12 23 1012.0 1012.3 0.0
30/07:00am 8.5 1.9 2.3 65 2.6 NNW 26 44 14 24 1012.7 1013.1 0.0
30/06:30am 8.6 -0.1 2.0 63 2.8 NNW 37 65 20 35 1013.0 1013.4 0.0
30/06:06am 8.3 0.3 1.9 64 2.7 NNW 33 52 18 28 1013.3 1013.7 0.0
30/06:00am 8.3 0.0 1.9 64 2.7 NNW 35 50 19 27 1013.4 1013.8 0.0
30/05:42am 8.3 0.9 2.1 65 2.6 NW 30 50 16 27 1013.5 1013.9 0.0
30/05:30am 8.4 0.5 2.0 64 2.7 NW 33 48 18 26 1013.9 1014.3 0.0
30/05:17am 8.5 0.5 1.9 63 2.8 NNW 33 54 18 29 1014.1 1014.5 0.0
30/05:00am 8.0 1.7 1.8 65 2.6 NNW 24 39 13 21 1014.3 1014.7 0.0
30/04:34am 8.4 0.6 1.8 63 2.8 NNW 32 50 17 27 1014.8 1015.1 0.0
30/04:30am 8.4 0.4 1.8 63 2.8 NNW 33 50 18 27 1014.8 1015.1 0.0
30/04:02am 8.5 0.1 1.6 62 2.9 NW 35 54 19 29 1014.9 1015.2 0.0
30/04:00am 8.7 -0.1 1.6 61 3.0 NW 37 54 20 29 1014.9 1015.2 0.0
30/03:35am 8.6 0.7 2.4 65 2.6 NW 33 52 18 28 1015.0 1015.3 0.0
30/03:30am 8.6 0.7 2.4 65 2.6 NW 33 46 18 25 1015.2 1015.5 0.0
30/03:01am 8.8 1.3 3.2 68 2.4 NNW 32 52 17 28 1015.7 1016.0 0.0
30/03:00am 8.7 1.0 3.5 70 2.3 NNW 33 52 18 28 1015.7 1016.0 0.0
30/02:30am 9.0 2.7 4.0 71 2.2 NNW 26 54 14 29 1016.7 1017.1 0.0
30/02:18am 9.2 2.2 4.0 70 2.3 NNW 30 50 16 27 1016.7 1017.1 0.0
30/02:00am 9.2 4.1 4.0 70 2.3 NW 20 37 11 20 1017.2 1017.6 0.0
30/01:30am 9.4 3.5 3.8 68 2.5 NW 24 37 13 20 1017.6 1018.0 0.0
30/01:00am 9.4 4.3 4.0 69 2.4 NNW 20 39 11 21 1017.9 1018.3 0.0
30/12:30am 9.5 2.8 3.9 68 2.5 NNW 28 48 15 26 1018.0 1018.4 0.0
30/12:29am 9.5 2.8 3.9 68 2.5 NNW 28 48 15 26 1017.9 1018.3 0.0
30/12:00am 9.6 3.3 4.0 68 2.5 NNW 26 44 14 24 1018.3 1018.7 0.0
 
Date/Time
EST
Temp
°C
App
Temp
°C
Dew
Point
Rel
Hum
%
Delta-T
°C
Wind Press
QNH
hPa
Press
MSL
hPa
Rain
since 9 am
mm
Dir
 
Spd
km/h
Gust
km/h
Spd
kts
Gust
kts
29/11:30pm 9.5 3.3 4.1 69 2.4 NNW 26 39 14 21 1018.7 1019.1 0.0
29/11:00pm 9.2 2.6 4.2 71 2.2 N 28 44 15 24 1019.2 1019.5 0.0
29/10:30pm 9.0 4.2 4.8 75 1.9 N 19 35 10 19 1019.7 1020.1 0.0
29/10:00pm 9.3 3.8 4.1 70 2.3 N 22 37 12 20 1019.9 1020.3 0.0
29/09:30pm 9.2 4.2 4.6 73 2.1 N 20 33 11 18 1020.3 1020.7 0.0
29/09:00pm 9.4 4.6 4.8 73 2.1 NNW 19 28 10 15 1020.6 1021.0 0.0
29/08:30pm 9.5 3.7 4.3 70 2.3 NNW 24 41 13 22 1020.7 1021.1 0.0
29/08:00pm 9.4 4.6 4.4 71 2.2 NNW 19 26 10 14 1020.8 1021.2 0.0
29/07:30pm 9.6 4.1 4.0 68 2.5 NW 22 39 12 21 1021.0 1021.4 0.0
29/07:00pm 9.3 4.8 4.3 71 2.2 NNW 17 28 9 15 1021.2 1021.6 0.0
29/06:30pm 9.8 4.6 3.8 66 2.7 NW 20 30 11 16 1021.3 1021.7 0.0
29/06:00pm 10.1 4.1 3.2 62 3.0 NW 24 33 13 18 1021.2 1021.6 0.0
29/05:30pm 10.0 4.0 3.3 63 2.9 NW 24 32 13 17 1021.4 1021.8 0.0
29/05:00pm 10.1 4.1 3.6 64 2.9 NW 24 39 13 21 1021.3 1021.7 0.0
29/04:30pm 9.8 4.6 3.8 66 2.7 NW 20 32 11 17 1021.7 1022.1 0.0
29/04:00pm 9.8 4.6 3.8 66 2.7 NW 20 32 11 17 1021.8 1022.2 0.0
29/03:30pm 9.8 4.7 4.0 67 2.6 NW 20 30 11 16 1022.2 1022.6 0.0
29/03:00pm 9.8 6.4 4.2 68 2.5 NNW 11 19 6 10 1022.6 1023.0 0.0
29/02:30pm 10.4 5.5 4.1 65 2.8 NNW 19 28 10 15 1022.7 1023.1 0.0
29/02:00pm 10.5 6.4 4.4 66 2.8 NW 15 24 8 13 1023.2 1023.6 0.0
29/01:30pm 10.7 6.5 4.0 63 3.0 WNW 15 22 8 12 1023.6 1024.0 0.0
29/01:00pm 10.5 6.4 4.2 65 2.8 NW 15 26 8 14 1023.7 1024.1 0.0
29/12:30pm 10.6 6.1 4.1 64 2.9 NW 17 26 9 14 1024.2 1024.6 0.0
29/12:00pm 10.2 6.1 4.6 68 2.5 WNW 15 26 8 14 1024.9 1025.3 0.0
29/11:30am 10.3 6.2 4.2 66 2.7 NW 15 28 8 15 1025.3 1025.7 0.0
29/11:00am 10.4 7.1 4.3 66 2.7 WNW 11 19 6 10 1025.6 1026.0 0.0
29/10:30am 10.1 6.5 5.1 71 2.3 NW 13 28 7 15 1026.1 1026.5 0.0
29/10:00am 9.5 4.1 4.7 72 2.2 WNW 22 35 12 19 1026.1 1026.5 0.0
29/09:30am 9.5 4.7 4.7 72 2.2 WNW 19 33 10 18 1026.1 1026.5 0.0
29/09:00am 9.1 4.7 4.5 73 2.1 NW 17 26 9 14 1026.5 1027.0 0.0
29/08:30am 9.2 5.1 4.4 72 2.2 NW 15 22 8 12 1026.5 1027.0 0.0
29/08:00am 9.0 4.9 4.2 72 2.1 NW 15 22 8 12 1026.6 1027.1 0.0
29/07:30am 8.2 4.6 4.8 79 1.5 NW 13 20 7 11 1026.4 1026.8 0.0

Other Formats:

Comma delimited format used in spreadsheet applications
http://www.bom.gov.au/fwo/IDT60801/IDT60801.95986.axf

JavaScript Object Notation format (JSON) in row-major order
http://www.bom.gov.au/fwo/IDT60801/IDT60801.95986.json